createdAt,value
2022-11-16T00:01:39.409Z,5.03
2022-11-16T00:04:06.328Z,5.22
2022-11-16T00:06:33.073Z,6.03
2022-11-16T00:09:20.921Z,5.90
2022-11-16T00:11:51.165Z,4.60
2022-11-16T00:14:19.609Z,4.28
2022-11-16T00:16:46.669Z,4.40
2022-11-16T00:19:13.759Z,4.43
2022-11-16T00:21:40.772Z,4.18
2022-11-16T00:24:09.234Z,4.05
2022-11-16T00:26:36.215Z,4.20
2022-11-16T00:29:03.114Z,4.53
2022-11-16T00:31:29.989Z,4.35
2022-11-16T00:33:57.007Z,4.13
2022-11-16T00:36:23.845Z,4.28
2022-11-16T00:38:53.767Z,4.63
2022-11-16T00:41:21.081Z,4.15
2022-11-16T00:43:48.109Z,4.25
2022-11-16T00:46:15.097Z,4.10
2022-11-16T00:48:42.015Z,4.47
2022-11-16T00:51:09.035Z,4.10
2022-11-16T00:53:36.349Z,4.07
2022-11-16T00:56:03.194Z,3.80
2022-11-16T00:58:30.324Z,3.50
2022-11-16T01:00:57.170Z,3.47
2022-11-16T01:03:24.037Z,4.30
2022-11-16T01:05:50.837Z,4.30
2022-11-16T01:08:17.598Z,4.30
2022-11-16T01:10:44.494Z,3.97
2022-11-16T01:13:11.685Z,4.43
2022-11-16T01:15:38.599Z,3.53
2022-11-16T01:18:05.462Z,3.80
2022-11-16T01:20:32.352Z,3.08
2022-11-16T01:22:59.139Z,3.38
2022-11-16T01:25:25.889Z,3.30
2022-11-16T01:27:52.754Z,3.00
2022-11-16T01:30:19.729Z,2.92
2022-11-16T01:32:46.580Z,2.78
2022-11-16T01:35:18.424Z,2.70
2022-11-16T01:37:45.718Z,2.70
2022-11-16T01:40:14.091Z,2.67
2022-11-16T01:42:40.936Z,2.72
2022-11-16T01:45:25.949Z,2.30
2022-11-16T01:47:54.416Z,2.30
2022-11-16T01:50:22.012Z,2.35
2022-11-16T01:52:57.229Z,2.20
2022-11-16T01:55:25.414Z,2.10
2022-11-16T01:57:52.581Z,2.17
2022-11-16T02:00:19.577Z,2.00
2022-11-16T02:02:46.513Z,1.80
2022-11-16T02:05:18.250Z,1.98
2022-11-16T02:08:28.202Z,2.03
2022-11-16T02:11:30.260Z,2.25
2022-11-16T02:14:06.212Z,2.08
2022-11-16T02:16:38.958Z,2.10
2022-11-16T02:19:38.022Z,1.98
2022-11-16T02:22:30.538Z,2.08
2022-11-16T02:25:12.892Z,2.10
2022-11-16T02:28:27.886Z,2.03
2022-11-16T02:30:57.915Z,1.60
2022-11-16T02:33:33.928Z,1.80
2022-11-16T02:36:04.458Z,1.88
2022-11-16T02:38:36.519Z,2.05
2022-11-16T02:41:14.199Z,2.13
2022-11-16T02:43:44.728Z,2.30
2022-11-16T02:46:34.565Z,2.60
2022-11-16T02:49:05.215Z,2.65
2022-11-16T02:51:34.909Z,2.33
2022-11-16T02:54:12.904Z,2.80
2022-11-16T02:56:55.473Z,3.03
2022-11-16T02:59:27.886Z,2.50
2022-11-16T03:02:11.427Z,2.65
2022-11-16T03:05:01.611Z,2.95
2022-11-16T03:08:05.692Z,2.80
2022-11-16T03:10:53.976Z,2.80
2022-11-16T03:13:22.769Z,2.97
2022-11-16T03:15:51.692Z,3.22
2022-11-16T03:18:20.454Z,2.90
2022-11-16T03:20:50.457Z,2.83
2022-11-16T03:23:17.364Z,3.13
2022-11-16T03:25:52.658Z,3.13
2022-11-16T03:28:34.276Z,3.20
2022-11-16T03:31:29.938Z,2.75
2022-11-16T03:34:01.117Z,3.28
2022-11-16T03:36:38.675Z,3.20
2022-11-16T03:39:12.321Z,2.80
2022-11-16T03:41:43.028Z,2.72
2022-11-16T03:44:12.431Z,2.40
2022-11-16T03:46:40.735Z,2.58
2022-11-16T03:49:07.648Z,2.20
2022-11-16T03:51:34.476Z,2.40
2022-11-16T03:54:01.302Z,2.40
2022-11-16T03:56:28.154Z,2.35
2022-11-16T03:58:55.027Z,2.53
2022-11-16T04:01:21.897Z,2.40
2022-11-16T04:03:49.033Z,2.28
2022-11-16T04:06:34.514Z,2.53
2022-11-16T04:09:20.033Z,2.70
2022-11-16T04:12:05.460Z,2.90
2022-11-16T04:14:51.113Z,2.75
2022-11-16T04:17:37.933Z,3.38
2022-11-16T04:20:24.238Z,3.28
2022-11-16T04:23:25.683Z,3.00
2022-11-16T04:25:53.272Z,3.25
2022-11-16T04:28:27.561Z,3.10
2022-11-16T04:31:16.888Z,3.80
2022-11-16T04:34:02.552Z,3.15
2022-11-16T04:36:48.109Z,3.30
2022-11-16T04:39:14.968Z,3.08
2022-11-16T04:42:00.222Z,3.08
2022-11-16T04:44:47.028Z,3.28
2022-11-16T04:47:13.890Z,3.00
2022-11-16T04:49:40.718Z,2.85
2022-11-16T04:52:08.884Z,2.70
2022-11-16T04:54:35.677Z,2.90
2022-11-16T04:57:02.488Z,3.00
2022-11-16T04:59:29.354Z,2.60
2022-11-16T05:02:11.095Z,2.78
2022-11-16T05:04:43.095Z,2.47
2022-11-16T05:07:12.580Z,2.60
2022-11-16T05:09:47.232Z,2.83
2022-11-16T05:12:22.486Z,2.75
2022-11-16T05:14:49.543Z,2.90
2022-11-16T05:17:17.803Z,2.40
2022-11-16T05:20:03.567Z,2.88
2022-11-16T05:22:30.607Z,2.55
2022-11-16T05:24:57.491Z,2.20
2022-11-16T05:27:25.427Z,2.25
2022-11-16T05:29:52.280Z,2.40
2022-11-16T05:32:22.342Z,2.42
2022-11-16T05:34:49.611Z,2.10
2022-11-16T05:37:17.561Z,2.33
2022-11-16T05:39:44.710Z,2.30
2022-11-16T05:42:11.522Z,2.58
2022-11-16T05:44:38.516Z,2.13
2022-11-16T05:47:05.483Z,2.75
2022-11-16T05:49:32.352Z,1.88
2022-11-16T05:51:59.310Z,2.28
2022-11-16T05:54:26.489Z,2.13
2022-11-16T05:56:54.609Z,3.13
2022-11-16T05:59:22.680Z,2.25
2022-11-16T06:01:49.959Z,2.30
2022-11-16T06:06:57.996Z,2.30
2022-11-16T06:09:24.818Z,2.10
2022-11-16T06:11:51.597Z,2.00
2022-11-16T06:14:18.501Z,2.20
2022-11-16T06:16:45.281Z,2.03
2022-11-16T06:19:12.180Z,2.50
2022-11-16T06:21:39.129Z,2.38
2022-11-16T06:24:09.085Z,2.58
2022-11-16T06:26:36.594Z,2.60
2022-11-16T06:29:04.076Z,2.03
2022-11-16T06:31:31.271Z,2.60
2022-11-16T06:33:58.114Z,2.75
2022-11-16T06:36:25.206Z,2.45
2022-11-16T06:38:52.081Z,2.30
2022-11-16T06:41:18.955Z,2.33
2022-11-16T06:43:45.837Z,2.50
2022-11-16T06:46:12.787Z,2.25
2022-11-16T06:48:39.576Z,2.45
2022-11-16T06:51:06.451Z,2.50
2022-11-16T06:53:33.216Z,2.30
2022-11-16T06:56:04.827Z,2.75
2022-11-16T06:58:32.471Z,2.42
2022-11-16T07:01:09.589Z,2.97
2022-11-16T07:03:36.434Z,2.20
2022-11-16T07:06:08.228Z,2.53
2022-11-16T07:08:35.395Z,2.63
2022-11-16T07:11:07.523Z,3.28
2022-11-16T07:13:35.138Z,2.30
2022-11-16T07:16:07.159Z,2.83
2022-11-16T07:18:40.112Z,2.65
2022-11-16T07:21:14.873Z,2.25
2022-11-16T07:23:42.109Z,2.30
2022-11-16T07:26:10.300Z,2.30
2022-11-16T07:28:38.472Z,2.63
2022-11-16T07:31:12.796Z,2.50
2022-11-16T07:33:39.909Z,2.72
2022-11-16T07:36:12.012Z,2.40
2022-11-16T07:38:39.034Z,2.13
2022-11-16T07:41:09.156Z,2.40
2022-11-16T07:43:36.599Z,2.70
2022-11-16T07:49:15.221Z,2.17
2022-11-16T07:51:42.982Z,2.47
2022-11-16T07:54:16.249Z,2.28
2022-11-16T07:56:43.168Z,2.58
2022-11-16T07:59:10.012Z,2.00
2022-11-16T08:01:36.873Z,2.20
2022-11-16T08:04:03.789Z,2.50
2022-11-16T08:06:31.843Z,2.30
2022-11-16T08:08:59.368Z,2.00
2022-11-16T08:11:26.908Z,2.13
2022-11-16T08:13:53.786Z,1.98
2022-11-16T08:16:22.731Z,1.77
2022-11-16T08:18:49.659Z,1.92
2022-11-16T08:21:18.163Z,2.20
2022-11-16T08:23:45.407Z,1.92
2022-11-16T08:26:18.151Z,1.80
2022-11-16T08:28:47.456Z,1.98
2022-11-16T08:31:17.757Z,2.10
2022-11-16T08:33:44.836Z,1.83
2022-11-16T08:36:17.244Z,2.30
2022-11-16T08:38:49.019Z,1.98
2022-11-16T08:41:16.945Z,2.30
2022-11-16T08:43:47.000Z,1.90
2022-11-16T08:46:14.696Z,1.85
2022-11-16T08:48:41.691Z,1.80
2022-11-16T08:51:18.940Z,1.90
2022-11-16T08:53:48.468Z,2.05
2022-11-16T08:56:16.932Z,1.80
2022-11-16T08:58:46.378Z,1.98
2022-11-16T09:01:19.704Z,1.75
2022-11-16T09:03:47.024Z,1.80
2022-11-16T09:06:14.209Z,2.13
2022-11-16T09:08:46.028Z,1.95
2022-11-16T09:11:16.225Z,2.20
2022-11-16T09:13:43.880Z,1.60
2022-11-16T09:16:12.145Z,2.20
2022-11-16T09:18:39.030Z,1.92
2022-11-16T09:21:05.965Z,2.08
2022-11-16T09:23:32.809Z,1.80
2022-11-16T09:26:06.101Z,1.90
2022-11-16T09:28:33.495Z,1.90
2022-11-16T09:31:02.782Z,1.83
2022-11-16T09:33:30.647Z,1.85
2022-11-16T09:36:07.112Z,2.45
2022-11-16T09:39:03.259Z,2.00
2022-11-16T09:41:25.402Z,1.67
2022-11-16T09:44:37.859Z,1.80
2022-11-16T09:47:09.911Z,1.92
2022-11-16T09:49:46.171Z,1.90
2022-11-16T09:52:33.060Z,1.85
2022-11-16T09:55:03.725Z,1.40
2022-11-16T09:57:36.199Z,1.77
2022-11-16T10:00:23.622Z,1.67
2022-11-16T10:03:06.512Z,1.95
2022-11-16T10:05:40.659Z,1.90
2022-11-16T10:08:18.086Z,1.77
2022-11-16T10:11:00.831Z,2.00
2022-11-16T10:14:01.407Z,2.00
2022-11-16T10:16:50.204Z,1.52
2022-11-16T10:19:38.580Z,1.75
2022-11-16T10:22:20.529Z,1.58
2022-11-16T10:24:58.616Z,2.03
2022-11-16T10:27:42.591Z,1.80
2022-11-16T10:30:09.761Z,2.15
2022-11-16T10:33:00.964Z,1.70
2022-11-16T10:35:33.267Z,1.90
2022-11-16T10:38:11.030Z,1.95
2022-11-16T10:40:39.322Z,2.47
2022-11-16T10:43:13.409Z,1.65
2022-11-16T10:45:55.881Z,1.90
2022-11-16T10:48:37.459Z,1.70
2022-11-16T10:51:05.504Z,1.63
2022-11-16T10:53:38.220Z,1.90
2022-11-16T10:56:14.070Z,1.83
2022-11-16T10:59:02.352Z,2.00
2022-11-16T11:01:36.328Z,1.80
2022-11-16T11:04:30.035Z,1.80
2022-11-16T11:07:02.402Z,1.95
2022-11-16T11:09:32.503Z,1.70
2022-11-16T11:12:18.182Z,1.80
2022-11-16T11:15:02.937Z,1.65
2022-11-16T11:17:32.104Z,1.90
2022-11-16T11:20:08.419Z,1.42
2022-11-16T11:22:42.297Z,1.52
2022-11-16T11:25:26.037Z,2.15
2022-11-16T11:28:07.626Z,1.58
2022-11-16T11:30:35.836Z,2.05
2022-11-16T11:33:11.625Z,1.90
2022-11-16T11:35:38.538Z,1.65
2022-11-16T11:38:08.329Z,1.75
2022-11-16T11:40:36.143Z,1.52
2022-11-16T11:43:05.659Z,1.20
2022-11-16T11:45:57.009Z,1.70
2022-11-16T11:48:56.452Z,1.80
2022-11-16T11:51:29.626Z,1.70
2022-11-16T11:53:58.176Z,1.50
2022-11-16T11:56:27.144Z,1.60
2022-11-16T11:58:54.705Z,1.98
2022-11-16T12:01:33.561Z,1.38
2022-11-16T12:04:09.110Z,2.00
2022-11-16T12:06:48.735Z,2.50
2022-11-16T12:09:37.228Z,2.00
2022-11-16T12:12:18.544Z,2.10
2022-11-16T12:15:03.857Z,2.00
2022-11-16T12:17:53.734Z,1.60
2022-11-16T12:20:51.181Z,1.60
2022-11-16T12:23:42.901Z,1.55
2022-11-16T12:26:34.801Z,1.40
2022-11-16T12:29:04.306Z,1.83
2022-11-16T12:32:00.686Z,2.20
2022-11-16T12:34:38.142Z,2.15
2022-11-16T12:37:35.224Z,1.73
2022-11-16T12:40:35.790Z,1.50
2022-11-16T12:43:17.283Z,1.48
2022-11-16T12:46:04.593Z,1.75
2022-11-16T12:49:09.029Z,2.33
2022-11-16T12:52:13.170Z,1.75
2022-11-16T12:55:27.741Z,1.65
2022-11-16T12:58:25.921Z,1.92
2022-11-16T13:01:02.648Z,1.80
2022-11-16T13:03:42.904Z,2.00
2022-11-16T13:06:15.000Z,1.70
2022-11-16T13:08:47.396Z,1.75
2022-11-16T13:11:29.737Z,1.90
2022-11-16T13:14:00.420Z,1.70
2022-11-16T13:16:28.984Z,1.77
2022-11-16T13:18:57.116Z,2.05
2022-11-16T13:21:40.613Z,1.75
2022-11-16T13:24:30.775Z,1.70
2022-11-16T13:27:14.998Z,2.00
2022-11-16T13:30:03.520Z,1.65
2022-11-16T13:32:34.886Z,1.88
2022-11-16T13:35:05.201Z,2.00
2022-11-16T13:37:37.775Z,1.83
2022-11-16T13:40:04.854Z,2.13
2022-11-16T13:42:39.033Z,1.95
2022-11-16T13:45:07.855Z,1.40
2022-11-16T13:47:35.665Z,1.60
2022-11-16T13:50:05.777Z,1.63
2022-11-16T13:53:31.793Z,2.47
2022-11-16T13:55:34.646Z,1.42
2022-11-16T13:58:04.331Z,1.73
2022-11-16T14:00:36.665Z,1.80
2022-11-16T14:03:15.375Z,1.70
2022-11-16T14:05:44.903Z,1.88
2022-11-16T14:08:26.736Z,1.90
2022-11-16T14:10:53.533Z,1.80
2022-11-16T14:13:53.526Z,2.00
2022-11-16T14:16:22.893Z,2.00
2022-11-16T14:18:54.942Z,2.35
2022-11-16T14:21:47.775Z,1.92
2022-11-16T14:24:36.823Z,2.38
2022-11-16T14:27:30.966Z,2.00
2022-11-16T14:30:15.863Z,2.10
2022-11-16T14:32:47.801Z,2.10
2022-11-16T14:35:36.518Z,2.28
2022-11-16T14:38:16.393Z,2.10
2022-11-16T14:40:47.268Z,2.30
2022-11-16T14:43:40.618Z,2.10
2022-11-16T14:46:22.300Z,2.20
2022-11-16T14:48:49.679Z,2.42
2022-11-16T14:51:26.199Z,2.10
2022-11-16T14:53:57.692Z,2.00
2022-11-16T14:56:24.582Z,1.85
2022-11-16T14:59:02.306Z,2.72
2022-11-16T15:01:35.152Z,2.35
2022-11-16T15:04:06.927Z,2.47
2022-11-16T15:06:45.798Z,2.38
2022-11-16T15:09:24.748Z,2.25
2022-11-16T15:12:11.059Z,4.32
2022-11-16T15:14:44.380Z,9.27
2022-11-16T15:17:20.240Z,7.88
2022-11-16T15:20:01.630Z,6.45
2022-11-16T15:22:32.379Z,4.00
2022-11-16T15:25:00.969Z,4.57
2022-11-16T15:27:35.678Z,4.57
2022-11-16T15:30:17.515Z,3.72
2022-11-16T15:32:47.140Z,3.83
2022-11-16T15:35:34.682Z,3.45
2022-11-16T15:38:17.859Z,4.35
2022-11-16T15:40:53.529Z,2.45
2022-11-16T15:43:49.814Z,4.57
2022-11-16T15:46:31.406Z,3.85
2022-11-16T15:49:00.225Z,3.67
2022-11-16T15:51:32.994Z,2.65
2022-11-16T15:54:15.309Z,2.70
2022-11-16T15:56:42.449Z,2.42
2022-11-16T15:59:19.067Z,2.20
2022-11-16T16:01:46.193Z,2.28
2022-11-16T16:04:18.045Z,2.78
2022-11-16T16:06:52.349Z,2.55
2022-11-16T16:09:19.283Z,2.40
2022-11-16T16:11:46.223Z,2.10
2022-11-16T16:14:22.633Z,1.73
2022-11-16T16:16:52.729Z,1.65
2022-11-16T16:19:33.964Z,1.95
2022-11-16T16:22:00.981Z,2.20
2022-11-16T16:24:46.724Z,1.83
2022-11-16T16:27:19.333Z,2.10
2022-11-16T16:29:51.658Z,1.90
2022-11-16T16:32:23.027Z,3.60
2022-11-16T16:34:50.489Z,4.78
2022-11-16T16:37:17.481Z,3.92
2022-11-16T16:39:44.453Z,3.10
2022-11-16T16:42:14.323Z,2.35
2022-11-16T16:44:42.545Z,2.38
2022-11-16T16:47:09.958Z,2.45
2022-11-16T16:49:37.518Z,2.05
2022-11-16T16:52:05.287Z,1.70
2022-11-16T16:54:32.514Z,2.17
2022-11-16T16:57:01.498Z,2.40
2022-11-16T16:59:30.118Z,2.33
2022-11-16T17:02:00.049Z,2.63
2022-11-16T17:04:26.926Z,2.00
2022-11-16T17:06:54.208Z,2.60
2022-11-16T17:09:21.072Z,2.35
2022-11-16T17:11:48.523Z,2.50
2022-11-16T17:14:15.376Z,1.95
2022-11-16T17:16:42.229Z,1.85
2022-11-16T17:19:09.028Z,1.70
2022-11-16T17:21:35.807Z,2.00
2022-11-16T17:24:05.250Z,2.08
2022-11-16T17:26:32.059Z,2.10
2022-11-16T17:28:58.967Z,2.00
2022-11-16T17:31:26.471Z,2.00
2022-11-16T17:33:53.400Z,2.10
2022-11-16T17:36:20.480Z,2.17
2022-11-16T17:38:47.354Z,2.00
2022-11-16T17:41:23.895Z,1.95
2022-11-16T17:43:53.618Z,2.03
2022-11-16T17:46:22.589Z,1.60
2022-11-16T17:48:49.870Z,1.80
2022-11-16T17:51:19.040Z,2.53
2022-11-16T17:53:47.000Z,2.00
2022-11-16T17:56:15.734Z,2.13
2022-11-16T17:58:42.627Z,2.00
2022-11-16T18:01:09.487Z,2.15
2022-11-16T18:03:37.658Z,2.20
2022-11-16T18:06:11.130Z,11.20
2022-11-16T18:08:38.159Z,2.85
2022-11-16T18:11:11.020Z,2.47
2022-11-16T18:13:38.435Z,2.50
2022-11-16T18:16:07.479Z,2.80
2022-11-16T18:18:34.407Z,2.83
2022-11-16T18:21:01.418Z,2.50
2022-11-16T18:23:29.129Z,2.13
2022-11-16T18:25:56.224Z,2.78
2022-11-16T18:28:23.753Z,2.40
2022-11-16T18:30:50.709Z,2.55
2022-11-16T18:33:18.533Z,2.70
2022-11-16T18:35:45.311Z,2.50
2022-11-16T18:38:13.133Z,2.67
2022-11-16T18:40:42.933Z,2.63
2022-11-16T18:43:13.105Z,2.55
2022-11-16T18:45:39.946Z,2.40
2022-11-16T18:48:07.495Z,2.60
2022-11-16T18:50:34.706Z,2.95
2022-11-16T18:53:01.510Z,2.70
2022-11-16T18:55:28.289Z,4.72
2022-11-16T18:57:55.131Z,6.30
2022-11-16T19:00:22.208Z,7.28
2022-11-16T19:02:49.010Z,7.78
2022-11-16T19:05:16.169Z,5.70
2022-11-16T19:07:42.980Z,8.43
2022-11-16T19:10:10.322Z,8.43
2022-11-16T19:12:37.097Z,8.43
2022-11-16T19:15:04.240Z,6.45
2022-11-16T19:17:31.132Z,3.60
2022-11-16T19:19:57.907Z,3.03
2022-11-16T19:22:24.743Z,3.75
2022-11-16T19:24:51.609Z,4.40
2022-11-16T19:27:18.457Z,3.72
2022-11-16T19:29:45.316Z,5.25
2022-11-16T19:32:12.120Z,3.83
2022-11-16T19:34:38.925Z,3.83
2022-11-16T19:37:05.721Z,4.50
2022-11-16T19:39:32.476Z,4.65
2022-11-16T19:41:59.294Z,4.22
2022-11-16T19:44:26.153Z,3.13
2022-11-16T19:46:54.416Z,3.15
2022-11-16T19:49:21.848Z,4.43
2022-11-16T19:51:49.293Z,3.33
2022-11-16T19:54:16.279Z,4.18
2022-11-16T19:56:43.553Z,7.05
2022-11-16T19:59:10.517Z,7.35
2022-11-16T20:01:37.316Z,8.50
2022-11-16T20:04:04.830Z,7.07
2022-11-16T20:06:34.382Z,4.97
2022-11-16T20:09:08.401Z,3.20
2022-11-16T20:11:37.131Z,2.72
2022-11-16T20:14:06.209Z,2.53
2022-11-16T20:16:39.089Z,2.53
2022-11-16T20:19:07.563Z,2.47
2022-11-16T20:21:39.422Z,2.30
2022-11-16T20:24:09.002Z,2.47
2022-11-16T20:26:37.129Z,2.65
2022-11-16T20:29:04.412Z,2.80
2022-11-16T20:31:32.726Z,2.70
2022-11-16T20:34:05.593Z,2.67
2022-11-16T20:36:33.520Z,2.40
2022-11-16T20:39:00.841Z,3.08
2022-11-16T20:41:30.133Z,2.78
2022-11-16T20:44:01.243Z,2.83
2022-11-16T20:46:30.982Z,2.45
2022-11-16T20:49:00.744Z,2.42
2022-11-16T20:51:28.765Z,2.58
2022-11-16T20:53:55.752Z,2.60
2022-11-16T20:56:23.100Z,2.38
2022-11-16T20:58:50.245Z,2.60
2022-11-16T21:01:30.936Z,2.38
2022-11-16T21:04:00.722Z,2.40
2022-11-16T21:06:28.058Z,1.98
2022-11-16T21:08:55.667Z,1.85
2022-11-16T21:11:25.298Z,2.10
2022-11-16T21:14:11.234Z,2.38
2022-11-16T21:16:38.765Z,2.10
2022-11-16T21:19:06.376Z,2.25
2022-11-16T21:21:33.463Z,2.25
2022-11-16T21:24:00.596Z,2.30
2022-11-16T21:26:30.333Z,2.78
2022-11-16T21:29:00.471Z,2.28
2022-11-16T21:31:32.606Z,2.40
2022-11-16T21:34:02.631Z,2.40
2022-11-16T21:36:32.166Z,2.20
2022-11-16T21:38:59.426Z,1.77
2022-11-16T21:41:26.523Z,1.95
2022-11-16T21:43:53.630Z,1.90
2022-11-16T21:46:22.765Z,2.10
2022-11-16T21:48:51.049Z,2.40
2022-11-16T21:51:19.769Z,2.10
2022-11-16T21:53:47.250Z,2.00
2022-11-16T21:56:16.476Z,2.50
2022-11-16T21:58:43.698Z,1.88
2022-11-16T22:01:11.616Z,1.88
2022-11-16T22:03:39.217Z,2.03
2022-11-16T22:06:30.058Z,1.65
2022-11-16T22:08:57.020Z,1.83
2022-11-16T22:11:23.993Z,1.70
2022-11-16T22:13:51.078Z,1.90
2022-11-16T22:16:20.116Z,1.55
2022-11-16T22:18:46.935Z,1.60
2022-11-16T22:21:13.768Z,1.70
2022-11-16T22:23:40.910Z,1.70
2022-11-16T22:26:10.448Z,1.60
2022-11-16T22:28:37.711Z,1.73
2022-11-16T22:31:15.078Z,1.40
2022-11-16T22:33:42.345Z,1.90
2022-11-16T22:36:10.384Z,1.58
2022-11-16T22:38:37.497Z,1.52
2022-11-16T22:41:04.851Z,1.35
2022-11-16T22:43:32.585Z,1.50
2022-11-16T22:46:04.557Z,1.30
2022-11-16T22:48:36.876Z,1.30
2022-11-16T22:51:19.818Z,1.10
2022-11-16T22:53:46.998Z,1.10
2022-11-16T22:56:13.923Z,1.20
2022-11-16T22:58:40.812Z,1.20
2022-11-16T23:01:10.782Z,1.20
2022-11-16T23:03:38.579Z,1.40
2022-11-16T23:06:06.458Z,1.20
2022-11-16T23:08:34.460Z,1.30
2022-11-16T23:11:30.054Z,1.30
2022-11-16T23:14:15.429Z,0.85
2022-11-16T23:16:42.906Z,1.00
2022-11-16T23:19:30.510Z,0.90
2022-11-16T23:22:16.391Z,0.95
2022-11-16T23:25:02.852Z,1.20
2022-11-16T23:27:57.582Z,1.08
2022-11-16T23:30:25.248Z,0.95
2022-11-16T23:32:52.632Z,0.80
2022-11-16T23:35:19.757Z,0.90
2022-11-16T23:38:13.035Z,1.05
2022-11-16T23:40:40.227Z,1.10
2022-11-16T23:43:28.483Z,0.90
2022-11-16T23:45:55.324Z,0.95
2022-11-16T23:48:24.507Z,1.00
2022-11-16T23:50:51.441Z,0.80
2022-11-16T23:53:18.283Z,0.80
2022-11-16T23:55:45.185Z,1.02
2022-11-16T23:58:14.078Z,1.00
